sensor_id;sensor_type;location;lat;lon;timestamp;P1;durP1;ratioP1;P2;durP2;ratioP2
69240;SDS011;56352;55.750;13.198;2023-08-20T00:01:32;7.45;;;5.10;;
69240;SDS011;56352;55.750;13.198;2023-08-20T00:03:59;8.35;;;4.55;;
69240;SDS011;56352;55.750;13.198;2023-08-20T00:06:27;10.63;;;5.00;;
69240;SDS011;56352;55.750;13.198;2023-08-20T00:08:53;6.15;;;4.53;;
69240;SDS011;56352;55.750;13.198;2023-08-20T00:11:20;6.35;;;4.40;;
69240;SDS011;56352;55.750;13.198;2023-08-20T00:13:47;6.10;;;4.53;;
69240;SDS011;56352;55.750;13.198;2023-08-20T00:16:14;5.35;;;4.30;;
69240;SDS011;56352;55.750;13.198;2023-08-20T00:18:41;6.07;;;4.57;;
69240;SDS011;56352;55.750;13.198;2023-08-20T00:21:08;5.20;;;4.50;;
69240;SDS011;56352;55.750;13.198;2023-08-20T00:23:35;6.20;;;4.45;;
69240;SDS011;56352;55.750;13.198;2023-08-20T00:26:03;6.80;;;4.70;;
69240;SDS011;56352;55.750;13.198;2023-08-20T00:28:30;6.50;;;5.05;;
69240;SDS011;56352;55.750;13.198;2023-08-20T00:31:00;7.22;;;4.55;;
69240;SDS011;56352;55.750;13.198;2023-08-20T00:33:27;7.30;;;5.10;;
69240;SDS011;56352;55.750;13.198;2023-08-20T00:35:57;7.78;;;5.30;;
69240;SDS011;56352;55.750;13.198;2023-08-20T00:38:24;5.97;;;4.63;;
69240;SDS011;56352;55.750;13.198;2023-08-20T00:40:50;7.97;;;4.82;;
69240;SDS011;56352;55.750;13.198;2023-08-20T00:43:17;7.22;;;4.80;;
69240;SDS011;56352;55.750;13.198;2023-08-20T00:45:54;5.13;;;4.07;;
69240;SDS011;56352;55.750;13.198;2023-08-20T00:48:21;6.72;;;4.22;;
69240;SDS011;56352;55.750;13.198;2023-08-20T00:50:48;4.65;;;3.85;;
69240;SDS011;56352;55.750;13.198;2023-08-20T00:53:15;5.13;;;4.38;;
69240;SDS011;56352;55.750;13.198;2023-08-20T00:55:42;5.82;;;4.20;;
69240;SDS011;56352;55.750;13.198;2023-08-20T00:58:10;5.18;;;3.97;;
69240;SDS011;56352;55.750;13.198;2023-08-20T01:00:37;4.85;;;4.35;;
69240;SDS011;56352;55.750;13.198;2023-08-20T01:03:04;6.95;;;4.80;;
69240;SDS011;56352;55.750;13.198;2023-08-20T01:05:36;6.07;;;4.80;;
69240;SDS011;56352;55.750;13.198;2023-08-20T01:11:12;6.22;;;4.38;;
69240;SDS011;56352;55.750;13.198;2023-08-20T01:13:31;7.50;;;3.92;;
69240;SDS011;56352;55.750;13.198;2023-08-20T01:15:58;4.90;;;3.90;;
69240;SDS011;56352;55.750;13.198;2023-08-20T01:18:25;5.35;;;3.83;;
69240;SDS011;56352;55.750;13.198;2023-08-20T01:20:55;5.97;;;3.83;;
69240;SDS011;56352;55.750;13.198;2023-08-20T01:23:51;4.65;;;3.03;;
69240;SDS011;56352;55.750;13.198;2023-08-20T01:29:22;4.95;;;3.58;;
69240;SDS011;56352;55.750;13.198;2023-08-20T01:31:49;7.30;;;3.75;;
69240;SDS011;56352;55.750;13.198;2023-08-20T01:34:20;4.47;;;3.80;;
69240;SDS011;56352;55.750;13.198;2023-08-20T01:36:47;4.55;;;3.55;;
69240;SDS011;56352;55.750;13.198;2023-08-20T01:39:14;4.43;;;3.28;;
69240;SDS011;56352;55.750;13.198;2023-08-20T01:41:41;3.83;;;3.10;;
69240;SDS011;56352;55.750;13.198;2023-08-20T01:44:07;3.75;;;2.97;;
69240;SDS011;56352;55.750;13.198;2023-08-20T01:46:34;4.25;;;3.40;;
69240;SDS011;56352;55.750;13.198;2023-08-20T01:49:00;6.60;;;3.17;;
69240;SDS011;56352;55.750;13.198;2023-08-20T01:51:27;3.72;;;2.83;;
69240;SDS011;56352;55.750;13.198;2023-08-20T01:53:54;6.97;;;2.72;;
69240;SDS011;56352;55.750;13.198;2023-08-20T01:56:21;3.17;;;2.88;;
69240;SDS011;56352;55.750;13.198;2023-08-20T01:58:47;2.97;;;2.47;;
69240;SDS011;56352;55.750;13.198;2023-08-20T02:01:14;3.45;;;2.63;;
69240;SDS011;56352;55.750;13.198;2023-08-20T02:03:41;3.15;;;2.85;;
69240;SDS011;56352;55.750;13.198;2023-08-20T02:06:07;3.40;;;3.00;;
69240;SDS011;56352;55.750;13.198;2023-08-20T02:08:34;3.78;;;2.85;;
69240;SDS011;56352;55.750;13.198;2023-08-20T02:11:04;2.78;;;2.47;;
69240;SDS011;56352;55.750;13.198;2023-08-20T02:13:31;3.05;;;2.47;;
69240;SDS011;56352;55.750;13.198;2023-08-20T02:16:01;2.83;;;2.33;;
69240;SDS011;56352;55.750;13.198;2023-08-20T02:18:29;3.08;;;2.58;;
69240;SDS011;56352;55.750;13.198;2023-08-20T02:20:57;3.80;;;2.40;;
69240;SDS011;56352;55.750;13.198;2023-08-20T02:23:23;2.75;;;2.42;;
69240;SDS011;56352;55.750;13.198;2023-08-20T02:25:50;2.65;;;2.35;;
69240;SDS011;56352;55.750;13.198;2023-08-20T02:28:17;4.53;;;2.50;;
69240;SDS011;56352;55.750;13.198;2023-08-20T02:30:44;3.00;;;2.45;;
69240;SDS011;56352;55.750;13.198;2023-08-20T02:33:12;1.98;;;1.73;;
69240;SDS011;56352;55.750;13.198;2023-08-20T02:35:39;2.28;;;2.05;;
69240;SDS011;56352;55.750;13.198;2023-08-20T02:38:06;3.30;;;2.10;;
69240;SDS011;56352;55.750;13.198;2023-08-20T02:40:32;2.10;;;1.90;;
69240;SDS011;56352;55.750;13.198;2023-08-20T02:43:05;3.10;;;2.05;;
69240;SDS011;56352;55.750;13.198;2023-08-20T02:45:32;2.20;;;1.90;;
69240;SDS011;56352;55.750;13.198;2023-08-20T02:47:59;2.22;;;1.80;;
69240;SDS011;56352;55.750;13.198;2023-08-20T02:50:26;1.98;;;1.67;;
69240;SDS011;56352;55.750;13.198;2023-08-20T02:52:52;5.55;;;1.83;;
69240;SDS011;56352;55.750;13.198;2023-08-20T02:55:19;2.35;;;2.00;;
69240;SDS011;56352;55.750;13.198;2023-08-20T02:57:46;2.92;;;2.20;;
69240;SDS011;56352;55.750;13.198;2023-08-20T03:00:13;3.00;;;2.00;;
69240;SDS011;56352;55.750;13.198;2023-08-20T03:02:40;3.83;;;2.80;;
69240;SDS011;56352;55.750;13.198;2023-08-20T03:05:08;6.25;;;2.38;;
69240;SDS011;56352;55.750;13.198;2023-08-20T03:07:36;4.90;;;2.25;;
69240;SDS011;56352;55.750;13.198;2023-08-20T03:10:02;4.57;;;1.90;;
69240;SDS011;56352;55.750;13.198;2023-08-20T03:12:30;3.00;;;2.25;;
69240;SDS011;56352;55.750;13.198;2023-08-20T03:14:56;3.13;;;2.50;;
69240;SDS011;56352;55.750;13.198;2023-08-20T03:17:23;3.53;;;2.40;;
69240;SDS011;56352;55.750;13.198;2023-08-20T03:19:56;3.10;;;2.60;;
69240;SDS011;56352;55.750;13.198;2023-08-20T03:22:24;4.95;;;3.03;;
69240;SDS011;56352;55.750;13.198;2023-08-20T03:24:51;4.47;;;3.10;;
69240;SDS011;56352;55.750;13.198;2023-08-20T03:27:18;4.07;;;3.47;;
69240;SDS011;56352;55.750;13.198;2023-08-20T03:29:45;5.50;;;3.33;;
69240;SDS011;56352;55.750;13.198;2023-08-20T03:32:12;4.90;;;3.65;;
69240;SDS011;56352;55.750;13.198;2023-08-20T03:34:39;5.80;;;3.80;;
69240;SDS011;56352;55.750;13.198;2023-08-20T03:37:06;4.88;;;3.50;;
69240;SDS011;56352;55.750;13.198;2023-08-20T03:39:33;5.55;;;3.70;;
69240;SDS011;56352;55.750;13.198;2023-08-20T03:41:59;5.70;;;4.10;;
69240;SDS011;56352;55.750;13.198;2023-08-20T03:44:26;5.07;;;4.15;;
69240;SDS011;56352;55.750;13.198;2023-08-20T03:46:53;4.40;;;3.80;;
69240;SDS011;56352;55.750;13.198;2023-08-20T03:49:19;4.88;;;4.03;;
69240;SDS011;56352;55.750;13.198;2023-08-20T03:51:46;5.32;;;4.40;;
69240;SDS011;56352;55.750;13.198;2023-08-20T03:54:13;6.65;;;5.22;;
69240;SDS011;56352;55.750;13.198;2023-08-20T03:56:39;6.93;;;5.07;;
69240;SDS011;56352;55.750;13.198;2023-08-20T03:59:06;6.75;;;5.07;;
69240;SDS011;56352;55.750;13.198;2023-08-20T04:01:33;5.63;;;5.00;;
69240;SDS011;56352;55.750;13.198;2023-08-20T04:03:59;5.95;;;5.10;;
69240;SDS011;56352;55.750;13.198;2023-08-20T04:06:26;6.35;;;5.00;;
69240;SDS011;56352;55.750;13.198;2023-08-20T04:08:53;6.03;;;5.05;;
69240;SDS011;56352;55.750;13.198;2023-08-20T04:11:19;5.88;;;5.20;;
69240;SDS011;56352;55.750;13.198;2023-08-20T04:13:46;8.00;;;5.05;;
69240;SDS011;56352;55.750;13.198;2023-08-20T04:16:13;7.10;;;5.13;;
69240;SDS011;56352;55.750;13.198;2023-08-20T04:18:40;6.03;;;4.70;;
69240;SDS011;56352;55.750;13.198;2023-08-20T04:21:06;8.05;;;5.28;;
69240;SDS011;56352;55.750;13.198;2023-08-20T04:23:36;7.03;;;4.95;;
69240;SDS011;56352;55.750;13.198;2023-08-20T04:26:02;6.07;;;5.25;;
69240;SDS011;56352;55.750;13.198;2023-08-20T04:28:29;5.55;;;5.00;;
69240;SDS011;56352;55.750;13.198;2023-08-20T04:30:56;6.78;;;4.85;;
69240;SDS011;56352;55.750;13.198;2023-08-20T04:33:24;6.57;;;4.85;;
69240;SDS011;56352;55.750;13.198;2023-08-20T04:35:51;5.85;;;4.97;;
69240;SDS011;56352;55.750;13.198;2023-08-20T04:38:20;6.82;;;4.90;;
69240;SDS011;56352;55.750;13.198;2023-08-20T04:40:47;6.03;;;4.88;;
69240;SDS011;56352;55.750;13.198;2023-08-20T04:43:14;5.80;;;4.80;;
69240;SDS011;56352;55.750;13.198;2023-08-20T04:45:41;6.50;;;4.95;;
69240;SDS011;56352;55.750;13.198;2023-08-20T04:48:08;6.60;;;5.40;;
69240;SDS011;56352;55.750;13.198;2023-08-20T04:50:35;6.90;;;5.25;;
69240;SDS011;56352;55.750;13.198;2023-08-20T04:53:01;7.72;;;5.20;;
69240;SDS011;56352;55.750;13.198;2023-08-20T04:55:28;6.72;;;4.97;;
69240;SDS011;56352;55.750;13.198;2023-08-20T04:57:55;7.35;;;5.22;;
69240;SDS011;56352;55.750;13.198;2023-08-20T05:00:22;6.80;;;5.38;;
69240;SDS011;56352;55.750;13.198;2023-08-20T05:02:48;6.28;;;5.13;;
69240;SDS011;56352;55.750;13.198;2023-08-20T05:05:15;10.18;;;5.57;;
69240;SDS011;56352;55.750;13.198;2023-08-20T05:07:42;9.60;;;5.82;;
69240;SDS011;56352;55.750;13.198;2023-08-20T05:10:09;7.53;;;6.00;;
69240;SDS011;56352;55.750;13.198;2023-08-20T05:12:36;5.72;;;5.05;;
69240;SDS011;56352;55.750;13.198;2023-08-20T05:15:03;9.15;;;6.10;;
69240;SDS011;56352;55.750;13.198;2023-08-20T05:17:30;8.43;;;5.63;;
69240;SDS011;56352;55.750;13.198;2023-08-20T05:19:57;7.50;;;5.55;;
69240;SDS011;56352;55.750;13.198;2023-08-20T05:22:24;6.82;;;5.32;;
69240;SDS011;56352;55.750;13.198;2023-08-20T05:24:50;7.78;;;4.78;;
69240;SDS011;56352;55.750;13.198;2023-08-20T05:27:17;8.27;;;5.05;;
69240;SDS011;56352;55.750;13.198;2023-08-20T05:29:44;6.70;;;5.07;;
69240;SDS011;56352;55.750;13.198;2023-08-20T05:32:10;6.53;;;5.07;;
69240;SDS011;56352;55.750;13.198;2023-08-20T05:34:37;5.60;;;4.80;;
69240;SDS011;56352;55.750;13.198;2023-08-20T05:37:04;8.25;;;4.97;;
69240;SDS011;56352;55.750;13.198;2023-08-20T05:39:35;5.15;;;4.30;;
69240;SDS011;56352;55.750;13.198;2023-08-20T05:42:03;5.40;;;4.50;;
69240;SDS011;56352;55.750;13.198;2023-08-20T05:44:30;8.10;;;4.45;;
69240;SDS011;56352;55.750;13.198;2023-08-20T05:46:57;7.18;;;4.30;;
69240;SDS011;56352;55.750;13.198;2023-08-20T05:49:24;8.52;;;4.85;;
69240;SDS011;56352;55.750;13.198;2023-08-20T05:51:54;6.13;;;3.85;;
69240;SDS011;56352;55.750;13.198;2023-08-20T05:54:21;8.52;;;4.40;;
69240;SDS011;56352;55.750;13.198;2023-08-20T05:56:47;9.60;;;5.32;;
69240;SDS011;56352;55.750;13.198;2023-08-20T05:59:14;9.32;;;5.20;;
69240;SDS011;56352;55.750;13.198;2023-08-20T06:01:41;11.30;;;5.10;;
69240;SDS011;56352;55.750;13.198;2023-08-20T06:04:07;7.70;;;5.30;;
69240;SDS011;56352;55.750;13.198;2023-08-20T06:06:34;13.63;;;6.00;;
69240;SDS011;56352;55.750;13.198;2023-08-20T06:09:01;10.82;;;5.55;;
69240;SDS011;56352;55.750;13.198;2023-08-20T06:11:35;10.75;;;5.25;;
69240;SDS011;56352;55.750;13.198;2023-08-20T06:14:02;10.32;;;5.65;;
69240;SDS011;56352;55.750;13.198;2023-08-20T06:16:29;8.35;;;5.95;;
69240;SDS011;56352;55.750;13.198;2023-08-20T06:18:57;7.03;;;5.72;;
69240;SDS011;56352;55.750;13.198;2023-08-20T06:21:26;6.72;;;5.45;;
69240;SDS011;56352;55.750;13.198;2023-08-20T06:23:52;8.95;;;5.82;;
69240;SDS011;56352;55.750;13.198;2023-08-20T06:26:19;8.43;;;6.15;;
69240;SDS011;56352;55.750;13.198;2023-08-20T06:28:46;8.18;;;5.97;;
69240;SDS011;56352;55.750;13.198;2023-08-20T06:31:13;6.75;;;5.40;;
69240;SDS011;56352;55.750;13.198;2023-08-20T06:33:39;8.25;;;6.20;;
69240;SDS011;56352;55.750;13.198;2023-08-20T06:36:06;9.35;;;5.65;;
69240;SDS011;56352;55.750;13.198;2023-08-20T06:38:33;10.70;;;6.43;;
69240;SDS011;56352;55.750;13.198;2023-08-20T06:40:59;7.25;;;6.35;;
69240;SDS011;56352;55.750;13.198;2023-08-20T06:43:26;6.53;;;5.00;;
69240;SDS011;56352;55.750;13.198;2023-08-20T06:45:52;7.53;;;5.45;;
69240;SDS011;56352;55.750;13.198;2023-08-20T06:48:19;8.63;;;5.43;;
69240;SDS011;56352;55.750;13.198;2023-08-20T06:53:14;6.35;;;5.30;;
69240;SDS011;56352;55.750;13.198;2023-08-20T06:55:41;6.65;;;5.22;;
69240;SDS011;56352;55.750;13.198;2023-08-20T06:58:08;7.45;;;4.60;;
69240;SDS011;56352;55.750;13.198;2023-08-20T07:00:34;4.55;;;3.70;;
69240;SDS011;56352;55.750;13.198;2023-08-20T07:03:01;5.45;;;4.13;;
69240;SDS011;56352;55.750;13.198;2023-08-20T07:05:29;5.05;;;3.95;;
69240;SDS011;56352;55.750;13.198;2023-08-20T07:07:56;5.35;;;3.72;;
69240;SDS011;56352;55.750;13.198;2023-08-20T07:10:23;5.05;;;4.00;;
69240;SDS011;56352;55.750;13.198;2023-08-20T07:12:49;5.22;;;3.58;;
69240;SDS011;56352;55.750;13.198;2023-08-20T07:15:16;5.07;;;3.55;;
69240;SDS011;56352;55.750;13.198;2023-08-20T07:17:43;5.55;;;3.65;;
69240;SDS011;56352;55.750;13.198;2023-08-20T07:20:11;4.65;;;3.55;;
69240;SDS011;56352;55.750;13.198;2023-08-20T07:22:38;5.18;;;4.20;;
69240;SDS011;56352;55.750;13.198;2023-08-20T07:25:05;4.78;;;4.00;;
69240;SDS011;56352;55.750;13.198;2023-08-20T07:27:32;5.18;;;4.07;;
69240;SDS011;56352;55.750;13.198;2023-08-20T07:29:59;7.20;;;4.47;;
69240;SDS011;56352;55.750;13.198;2023-08-20T07:32:25;4.45;;;3.75;;
69240;SDS011;56352;55.750;13.198;2023-08-20T07:34:52;5.32;;;4.20;;
69240;SDS011;56352;55.750;13.198;2023-08-20T07:37:19;4.15;;;3.75;;
69240;SDS011;56352;55.750;13.198;2023-08-20T07:39:47;4.68;;;4.28;;
69240;SDS011;56352;55.750;13.198;2023-08-20T07:42:13;5.20;;;4.35;;
69240;SDS011;56352;55.750;13.198;2023-08-20T07:44:40;5.05;;;4.00;;
69240;SDS011;56352;55.750;13.198;2023-08-20T07:47:07;5.35;;;4.10;;
69240;SDS011;56352;55.750;13.198;2023-08-20T07:49:34;5.40;;;3.67;;
69240;SDS011;56352;55.750;13.198;2023-08-20T07:52:00;3.88;;;3.47;;
69240;SDS011;56352;55.750;13.198;2023-08-20T07:54:27;3.80;;;3.30;;
69240;SDS011;56352;55.750;13.198;2023-08-20T07:56:55;4.00;;;3.25;;
69240;SDS011;56352;55.750;13.198;2023-08-20T07:59:21;4.45;;;3.50;;
69240;SDS011;56352;55.750;13.198;2023-08-20T08:01:48;4.80;;;3.65;;
69240;SDS011;56352;55.750;13.198;2023-08-20T08:04:15;5.75;;;3.67;;
69240;SDS011;56352;55.750;13.198;2023-08-20T08:06:41;4.38;;;3.75;;
69240;SDS011;56352;55.750;13.198;2023-08-20T08:09:21;5.35;;;3.88;;
69240;SDS011;56352;55.750;13.198;2023-08-20T08:11:55;6.22;;;4.28;;
69240;SDS011;56352;55.750;13.198;2023-08-20T08:14:22;6.32;;;4.28;;
69240;SDS011;56352;55.750;13.198;2023-08-20T08:16:49;7.45;;;4.75;;
69240;SDS011;56352;55.750;13.198;2023-08-20T08:19:17;5.13;;;4.43;;
69240;SDS011;56352;55.750;13.198;2023-08-20T08:21:44;6.05;;;4.68;;
69240;SDS011;56352;55.750;13.198;2023-08-20T08:24:10;5.75;;;4.40;;
69240;SDS011;56352;55.750;13.198;2023-08-20T08:26:37;6.32;;;4.55;;
69240;SDS011;56352;55.750;13.198;2023-08-20T08:29:05;6.20;;;4.47;;
69240;SDS011;56352;55.750;13.198;2023-08-20T08:31:32;7.65;;;5.00;;
69240;SDS011;56352;55.750;13.198;2023-08-20T08:34:00;6.78;;;5.20;;
69240;SDS011;56352;55.750;13.198;2023-08-20T08:36:28;7.80;;;5.00;;
69240;SDS011;56352;55.750;13.198;2023-08-20T08:38:56;5.27;;;4.40;;
69240;SDS011;56352;55.750;13.198;2023-08-20T08:41:23;5.70;;;4.60;;
69240;SDS011;56352;55.750;13.198;2023-08-20T08:43:51;6.68;;;4.10;;
69240;SDS011;56352;55.750;13.198;2023-08-20T08:46:18;4.85;;;4.25;;
69240;SDS011;56352;55.750;13.198;2023-08-20T08:48:45;6.18;;;4.75;;
69240;SDS011;56352;55.750;13.198;2023-08-20T08:51:13;7.43;;;4.85;;
69240;SDS011;56352;55.750;13.198;2023-08-20T08:53:43;5.60;;;5.03;;
69240;SDS011;56352;55.750;13.198;2023-08-20T08:56:10;7.43;;;4.95;;
69240;SDS011;56352;55.750;13.198;2023-08-20T08:58:37;6.80;;;5.50;;
69240;SDS011;56352;55.750;13.198;2023-08-20T09:01:04;7.10;;;5.13;;
69240;SDS011;56352;55.750;13.198;2023-08-20T09:03:30;8.65;;;5.78;;
69240;SDS011;56352;55.750;13.198;2023-08-20T09:05:58;5.90;;;5.05;;
69240;SDS011;56352;55.750;13.198;2023-08-20T09:08:30;8.35;;;5.65;;
69240;SDS011;56352;55.750;13.198;2023-08-20T09:11:00;6.55;;;5.60;;
69240;SDS011;56352;55.750;13.198;2023-08-20T09:13:34;8.32;;;5.68;;
69240;SDS011;56352;55.750;13.198;2023-08-20T09:16:09;5.60;;;4.97;;
69240;SDS011;56352;55.750;13.198;2023-08-20T09:21:10;8.65;;;6.55;;
69240;SDS011;56352;55.750;13.198;2023-08-20T09:23:38;8.70;;;6.75;;
69240;SDS011;56352;55.750;13.198;2023-08-20T09:26:06;9.38;;;6.93;;
69240;SDS011;56352;55.750;13.198;2023-08-20T09:28:43;10.43;;;6.85;;
69240;SDS011;56352;55.750;13.198;2023-08-20T09:31:11;9.30;;;6.70;;
69240;SDS011;56352;55.750;13.198;2023-08-20T09:33:49;12.55;;;7.47;;
69240;SDS011;56352;55.750;13.198;2023-08-20T09:36:17;12.32;;;7.60;;
69240;SDS011;56352;55.750;13.198;2023-08-20T09:38:44;9.13;;;6.65;;
69240;SDS011;56352;55.750;13.198;2023-08-20T09:41:12;10.17;;;7.47;;
69240;SDS011;56352;55.750;13.198;2023-08-20T09:43:39;9.20;;;7.18;;
69240;SDS011;56352;55.750;13.198;2023-08-20T09:46:07;10.60;;;7.37;;
69240;SDS011;56352;55.750;13.198;2023-08-20T09:48:36;11.52;;;7.70;;
69240;SDS011;56352;55.750;13.198;2023-08-20T09:51:05;10.23;;;7.20;;
69240;SDS011;56352;55.750;13.198;2023-08-20T09:56:35;14.10;;;8.40;;
69240;SDS011;56352;55.750;13.198;2023-08-20T09:59:04;12.18;;;8.25;;
69240;SDS011;56352;55.750;13.198;2023-08-20T10:01:31;12.48;;;7.68;;
69240;SDS011;56352;55.750;13.198;2023-08-20T10:03:58;10.65;;;7.38;;
69240;SDS011;56352;55.750;13.198;2023-08-20T10:06:25;10.45;;;7.10;;
69240;SDS011;56352;55.750;13.198;2023-08-20T10:08:52;12.65;;;7.53;;
69240;SDS011;56352;55.750;13.198;2023-08-20T10:11:19;9.52;;;6.60;;
69240;SDS011;56352;55.750;13.198;2023-08-20T10:13:46;9.02;;;6.28;;
69240;SDS011;56352;55.750;13.198;2023-08-20T10:16:13;8.85;;;5.75;;
69240;SDS011;56352;55.750;13.198;2023-08-20T10:18:40;9.68;;;5.97;;
69240;SDS011;56352;55.750;13.198;2023-08-20T10:21:07;8.82;;;6.72;;
69240;SDS011;56352;55.750;13.198;2023-08-20T10:23:36;8.43;;;6.20;;
69240;SDS011;56352;55.750;13.198;2023-08-20T10:26:08;7.90;;;6.22;;
69240;SDS011;56352;55.750;13.198;2023-08-20T10:28:35;6.53;;;4.43;;
69240;SDS011;56352;55.750;13.198;2023-08-20T10:31:09;7.55;;;5.05;;
69240;SDS011;56352;55.750;13.198;2023-08-20T10:33:38;9.65;;;5.75;;
69240;SDS011;56352;55.750;13.198;2023-08-20T10:36:13;6.32;;;4.53;;
69240;SDS011;56352;55.750;13.198;2023-08-20T10:38:41;7.72;;;5.10;;
69240;SDS011;56352;55.750;13.198;2023-08-20T10:41:08;9.40;;;5.85;;
69240;SDS011;56352;55.750;13.198;2023-08-20T10:43:37;12.15;;;7.45;;
69240;SDS011;56352;55.750;13.198;2023-08-20T10:46:26;16.08;;;8.55;;
69240;SDS011;56352;55.750;13.198;2023-08-20T10:48:56;15.88;;;8.68;;
69240;SDS011;56352;55.750;13.198;2023-08-20T10:56:48;25.88;;;12.18;;
69240;SDS011;56352;55.750;13.198;2023-08-20T10:59:17;24.15;;;11.60;;
69240;SDS011;56352;55.750;13.198;2023-08-20T11:01:48;25.17;;;12.88;;
69240;SDS011;56352;55.750;13.198;2023-08-20T11:04:15;22.00;;;11.95;;
69240;SDS011;56352;55.750;13.198;2023-08-20T11:06:44;19.90;;;11.33;;
69240;SDS011;56352;55.750;13.198;2023-08-20T11:09:11;18.10;;;10.57;;
69240;SDS011;56352;55.750;13.198;2023-08-20T11:11:41;15.93;;;10.23;;
69240;SDS011;56352;55.750;13.198;2023-08-20T11:14:12;16.90;;;9.35;;
69240;SDS011;56352;55.750;13.198;2023-08-20T11:16:41;18.98;;;9.85;;
69240;SDS011;56352;55.750;13.198;2023-08-20T11:19:10;15.90;;;8.63;;
69240;SDS011;56352;55.750;13.198;2023-08-20T11:21:40;15.30;;;8.73;;
69240;SDS011;56352;55.750;13.198;2023-08-20T11:24:08;17.20;;;8.68;;
69240;SDS011;56352;55.750;13.198;2023-08-20T11:26:35;15.75;;;8.93;;
69240;SDS011;56352;55.750;13.198;2023-08-20T11:29:13;18.73;;;8.18;;
69240;SDS011;56352;55.750;13.198;2023-08-20T11:31:48;13.10;;;7.95;;
69240;SDS011;56352;55.750;13.198;2023-08-20T11:34:15;14.93;;;8.02;;
69240;SDS011;56352;55.750;13.198;2023-08-20T11:36:42;11.35;;;7.65;;
69240;SDS011;56352;55.750;13.198;2023-08-20T11:39:10;14.60;;;7.55;;
69240;SDS011;56352;55.750;13.198;2023-08-20T11:41:37;13.88;;;8.35;;
69240;SDS011;56352;55.750;13.198;2023-08-20T11:44:18;14.00;;;7.35;;
69240;SDS011;56352;55.750;13.198;2023-08-20T11:46:46;13.10;;;7.00;;
69240;SDS011;56352;55.750;13.198;2023-08-20T11:49:14;9.70;;;6.50;;
69240;SDS011;56352;55.750;13.198;2023-08-20T11:51:41;10.05;;;6.43;;
69240;SDS011;56352;55.750;13.198;2023-08-20T11:54:13;13.98;;;5.85;;
69240;SDS011;56352;55.750;13.198;2023-08-20T11:56:44;8.88;;;5.50;;
69240;SDS011;56352;55.750;13.198;2023-08-20T11:59:12;10.38;;;5.32;;
69240;SDS011;56352;55.750;13.198;2023-08-20T12:01:39;9.68;;;5.82;;
69240;SDS011;56352;55.750;13.198;2023-08-20T12:04:07;10.52;;;5.60;;
69240;SDS011;56352;55.750;13.198;2023-08-20T12:06:34;8.82;;;4.88;;
69240;SDS011;56352;55.750;13.198;2023-08-20T12:09:17;8.63;;;4.75;;
69240;SDS011;56352;55.750;13.198;2023-08-20T12:11:49;7.20;;;4.32;;
69240;SDS011;56352;55.750;13.198;2023-08-20T12:14:17;7.07;;;4.80;;
69240;SDS011;56352;55.750;13.198;2023-08-20T12:16:45;8.32;;;4.50;;
69240;SDS011;56352;55.750;13.198;2023-08-20T12:19:12;7.53;;;4.78;;
69240;SDS011;56352;55.750;13.198;2023-08-20T12:25:22;6.15;;;3.83;;
69240;SDS011;56352;55.750;13.198;2023-08-20T12:27:49;8.43;;;3.55;;
69240;SDS011;56352;55.750;13.198;2023-08-20T12:30:15;6.95;;;3.60;;
69240;SDS011;56352;55.750;13.198;2023-08-20T12:32:42;5.45;;;3.20;;
69240;SDS011;56352;55.750;13.198;2023-08-20T12:35:09;7.45;;;3.05;;
69240;SDS011;56352;55.750;13.198;2023-08-20T12:37:36;4.43;;;3.03;;
69240;SDS011;56352;55.750;13.198;2023-08-20T12:40:03;6.22;;;3.50;;
69240;SDS011;56352;55.750;13.198;2023-08-20T12:42:39;4.40;;;3.00;;
69240;SDS011;56352;55.750;13.198;2023-08-20T12:45:15;5.82;;;3.42;;
69240;SDS011;56352;55.750;13.198;2023-08-20T12:47:42;5.28;;;3.40;;
69240;SDS011;56352;55.750;13.198;2023-08-20T12:50:09;5.18;;;3.17;;
69240;SDS011;56352;55.750;13.198;2023-08-20T12:52:37;4.25;;;2.90;;
69240;SDS011;56352;55.750;13.198;2023-08-20T12:55:04;5.72;;;2.90;;
69240;SDS011;56352;55.750;13.198;2023-08-20T12:57:30;5.97;;;3.03;;
69240;SDS011;56352;55.750;13.198;2023-08-20T13:00:00;5.97;;;3.22;;
69240;SDS011;56352;55.750;13.198;2023-08-20T13:02:27;6.53;;;3.30;;
69240;SDS011;56352;55.750;13.198;2023-08-20T13:04:54;5.22;;;2.90;;
69240;SDS011;56352;55.750;13.198;2023-08-20T13:07:20;5.10;;;2.75;;
69240;SDS011;56352;55.750;13.198;2023-08-20T13:09:47;5.80;;;2.80;;
69240;SDS011;56352;55.750;13.198;2023-08-20T13:12:14;5.43;;;2.75;;
69240;SDS011;56352;55.750;13.198;2023-08-20T13:14:43;5.45;;;2.58;;
69240;SDS011;56352;55.750;13.198;2023-08-20T13:17:10;4.57;;;2.45;;
69240;SDS011;56352;55.750;13.198;2023-08-20T13:19:37;2.83;;;2.40;;
69240;SDS011;56352;55.750;13.198;2023-08-20T13:22:04;6.22;;;2.25;;
69240;SDS011;56352;55.750;13.198;2023-08-20T13:24:31;5.18;;;2.20;;
69240;SDS011;56352;55.750;13.198;2023-08-20T13:26:57;5.63;;;2.08;;
69240;SDS011;56352;55.750;13.198;2023-08-20T13:29:24;5.43;;;2.28;;
69240;SDS011;56352;55.750;13.198;2023-08-20T13:31:51;4.97;;;2.22;;
69240;SDS011;56352;55.750;13.198;2023-08-20T13:34:17;3.95;;;1.83;;
69240;SDS011;56352;55.750;13.198;2023-08-20T13:36:44;7.93;;;2.30;;
69240;SDS011;56352;55.750;13.198;2023-08-20T13:39:11;4.75;;;2.05;;
69240;SDS011;56352;55.750;13.198;2023-08-20T13:41:40;4.35;;;1.88;;
69240;SDS011;56352;55.750;13.198;2023-08-20T13:44:07;4.03;;;2.10;;
69240;SDS011;56352;55.750;13.198;2023-08-20T13:46:35;3.13;;;2.10;;
69240;SDS011;56352;55.750;13.198;2023-08-20T13:49:02;6.68;;;2.63;;
69240;SDS011;56352;55.750;13.198;2023-08-20T13:51:29;4.30;;;1.67;;
69240;SDS011;56352;55.750;13.198;2023-08-20T13:53:56;4.63;;;2.10;;
69240;SDS011;56352;55.750;13.198;2023-08-20T13:56:24;3.33;;;2.00;;
69240;SDS011;56352;55.750;13.198;2023-08-20T13:58:55;3.25;;;1.60;;
69240;SDS011;56352;55.750;13.198;2023-08-20T14:01:22;3.45;;;1.85;;
69240;SDS011;56352;55.750;13.198;2023-08-20T14:03:48;3.33;;;1.55;;
69240;SDS011;56352;55.750;13.198;2023-08-20T14:06:16;7.10;;;2.00;;
69240;SDS011;56352;55.750;13.198;2023-08-20T14:08:43;4.53;;;1.88;;
69240;SDS011;56352;55.750;13.198;2023-08-20T14:11:09;5.53;;;1.90;;
69240;SDS011;56352;55.750;13.198;2023-08-20T14:13:36;5.43;;;2.08;;
69240;SDS011;56352;55.750;13.198;2023-08-20T14:16:03;4.40;;;2.15;;
69240;SDS011;56352;55.750;13.198;2023-08-20T14:18:30;4.00;;;1.80;;
69240;SDS011;56352;55.750;13.198;2023-08-20T14:20:56;3.08;;;1.77;;
69240;SDS011;56352;55.750;13.198;2023-08-20T14:23:24;4.45;;;2.28;;
69240;SDS011;56352;55.750;13.198;2023-08-20T14:25:50;6.72;;;1.92;;
69240;SDS011;56352;55.750;13.198;2023-08-20T14:28:17;3.25;;;1.70;;
69240;SDS011;56352;55.750;13.198;2023-08-20T14:30:44;5.82;;;2.28;;
69240;SDS011;56352;55.750;13.198;2023-08-20T14:33:11;4.10;;;1.58;;
69240;SDS011;56352;55.750;13.198;2023-08-20T14:35:37;5.80;;;2.08;;
69240;SDS011;56352;55.750;13.198;2023-08-20T14:38:04;4.75;;;2.03;;
69240;SDS011;56352;55.750;13.198;2023-08-20T14:40:31;5.13;;;2.10;;
69240;SDS011;56352;55.750;13.198;2023-08-20T14:42:58;5.55;;;2.08;;
69240;SDS011;56352;55.750;13.198;2023-08-20T14:45:25;5.05;;;2.17;;
69240;SDS011;56352;55.750;13.198;2023-08-20T14:47:51;4.75;;;2.05;;
69240;SDS011;56352;55.750;13.198;2023-08-20T14:50:18;4.53;;;2.28;;
69240;SDS011;56352;55.750;13.198;2023-08-20T14:52:45;3.58;;;1.80;;
69240;SDS011;56352;55.750;13.198;2023-08-20T14:55:18;5.38;;;2.13;;
69240;SDS011;56352;55.750;13.198;2023-08-20T14:57:45;7.00;;;2.17;;
69240;SDS011;56352;55.750;13.198;2023-08-20T15:00:17;4.72;;;1.98;;